sensor_id;sensor_type;location;lat;lon;timestamp;temperature;humidity
71039;SHT30;58692;43.212;27.908;2022-08-21T00:00:08;25.45;80.14
71039;SHT30;58692;43.212;27.908;2022-08-21T00:02:35;25.51;79.69
71039;SHT30;58692;43.212;27.908;2022-08-21T00:05:00;25.50;79.64
71039;SHT30;58692;43.212;27.908;2022-08-21T00:07:26;25.49;79.57
71039;SHT30;58692;43.212;27.908;2022-08-21T00:09:52;25.45;79.45
71039;SHT30;58692;43.212;27.908;2022-08-21T00:12:18;25.46;79.30
71039;SHT30;58692;43.212;27.908;2022-08-21T00:14:43;25.51;79.01
71039;SHT30;58692;43.212;27.908;2022-08-21T00:17:09;25.53;79.02
71039;SHT30;58692;43.212;27.908;2022-08-21T00:19:34;25.51;78.91
71039;SHT30;58692;43.212;27.908;2022-08-21T00:22:00;25.57;78.70
71039;SHT30;58692;43.212;27.908;2022-08-21T00:24:26;25.53;78.76
71039;SHT30;58692;43.212;27.908;2022-08-21T00:26:52;25.62;78.52
71039;SHT30;58692;43.212;27.908;2022-08-21T00:29:18;25.62;78.48
71039;SHT30;58692;43.212;27.908;2022-08-21T00:31:45;25.56;78.72
71039;SHT30;58692;43.212;27.908;2022-08-21T00:34:12;25.67;78.25
71039;SHT30;58692;43.212;27.908;2022-08-21T00:36:37;25.70;78.11
71039;SHT30;58692;43.212;27.908;2022-08-21T00:39:05;25.73;78.03
71039;SHT30;58692;43.212;27.908;2022-08-21T00:41:35;25.76;77.88
71039;SHT30;58692;43.212;27.908;2022-08-21T00:44:02;25.76;77.97
71039;SHT30;58692;43.212;27.908;2022-08-21T00:46:29;25.70;78.27
71039;SHT30;58692;43.212;27.908;2022-08-21T00:48:55;25.71;78.15
71039;SHT30;58692;43.212;27.908;2022-08-21T00:51:26;25.71;78.29
71039;SHT30;58692;43.212;27.908;2022-08-21T00:53:56;25.74;78.25
71039;SHT30;58692;43.212;27.908;2022-08-21T00:56:24;25.71;78.51
71039;SHT30;58692;43.212;27.908;2022-08-21T00:58:50;25.76;78.29
71039;SHT30;58692;43.212;27.908;2022-08-21T01:01:16;25.67;78.50
71039;SHT30;58692;43.212;27.908;2022-08-21T01:03:42;25.57;78.73
71039;SHT30;58692;43.212;27.908;2022-08-21T01:06:08;25.42;78.99
71039;SHT30;58692;43.212;27.908;2022-08-21T01:08:34;25.23;79.62
71039;SHT30;58692;43.212;27.908;2022-08-21T01:11:01;25.22;79.75
71039;SHT30;58692;43.212;27.908;2022-08-21T01:13:29;25.08;80.04
71039;SHT30;58692;43.212;27.908;2022-08-21T01:15:58;25.09;80.25
71039;SHT30;58692;43.212;27.908;2022-08-21T01:18:26;25.16;79.95
71039;SHT30;58692;43.212;27.908;2022-08-21T01:21:11;25.15;80.09
71039;SHT30;58692;43.212;27.908;2022-08-21T01:23:39;25.19;79.83
71039;SHT30;58692;43.212;27.908;2022-08-21T01:26:05;25.06;79.91
71039;SHT30;58692;43.212;27.908;2022-08-21T01:28:36;25.09;79.76
71039;SHT30;58692;43.212;27.908;2022-08-21T01:31:05;25.12;79.72
71039;SHT30;58692;43.212;27.908;2022-08-21T01:33:33;24.85;80.54
71039;SHT30;58692;43.212;27.908;2022-08-21T01:35:58;24.74;80.96
71039;SHT30;58692;43.212;27.908;2022-08-21T01:38:25;24.72;81.22
71039;SHT30;58692;43.212;27.908;2022-08-21T01:40:51;24.65;81.54
71039;SHT30;58692;43.212;27.908;2022-08-21T01:43:16;24.65;81.64
71039;SHT30;58692;43.212;27.908;2022-08-21T01:45:42;24.65;81.68
71039;SHT30;58692;43.212;27.908;2022-08-21T01:48:08;24.74;81.44
71039;SHT30;58692;43.212;27.908;2022-08-21T01:50:33;24.69;81.50
71039;SHT30;58692;43.212;27.908;2022-08-21T01:52:59;24.72;81.40
71039;SHT30;58692;43.212;27.908;2022-08-21T01:55:25;24.76;81.25
71039;SHT30;58692;43.212;27.908;2022-08-21T01:57:50;24.69;81.26
71039;SHT30;58692;43.212;27.908;2022-08-21T02:00:19;24.67;81.37
71039;SHT30;58692;43.212;27.908;2022-08-21T02:02:44;24.71;81.13
71039;SHT30;58692;43.212;27.908;2022-08-21T02:05:12;24.68;81.08
71039;SHT30;58692;43.212;27.908;2022-08-21T02:07:40;24.69;81.03
71039;SHT30;58692;43.212;27.908;2022-08-21T02:10:07;24.61;81.27
71039;SHT30;58692;43.212;27.908;2022-08-21T02:12:33;24.69;80.88
71039;SHT30;58692;43.212;27.908;2022-08-21T02:14:58;24.74;80.70
71039;SHT30;58692;43.212;27.908;2022-08-21T02:17:24;24.71;80.36
71039;SHT30;58692;43.212;27.908;2022-08-21T02:19:49;24.64;80.40
71039;SHT30;58692;43.212;27.908;2022-08-21T02:22:15;24.58;80.45
71039;SHT30;58692;43.212;27.908;2022-08-21T02:24:41;24.63;80.31
71039;SHT30;58692;43.212;27.908;2022-08-21T02:27:06;24.68;80.31
71039;SHT30;58692;43.212;27.908;2022-08-21T02:29:32;24.64;80.64
71039;SHT30;58692;43.212;27.908;2022-08-21T02:31:57;24.63;80.67
71039;SHT30;58692;43.212;27.908;2022-08-21T02:34:23;24.61;81.01
71039;SHT30;58692;43.212;27.908;2022-08-21T02:36:48;24.45;81.75
71039;SHT30;58692;43.212;27.908;2022-08-21T02:39:14;24.50;81.59
71039;SHT30;58692;43.212;27.908;2022-08-21T02:41:39;24.50;81.61
71039;SHT30;58692;43.212;27.908;2022-08-21T02:44:05;24.48;81.48
71039;SHT30;58692;43.212;27.908;2022-08-21T02:46:30;24.43;81.80
71039;SHT30;58692;43.212;27.908;2022-08-21T02:48:56;24.37;81.88
71039;SHT30;58692;43.212;27.908;2022-08-21T02:51:22;24.45;81.77
71039;SHT30;58692;43.212;27.908;2022-08-21T02:53:49;24.50;81.77
71039;SHT30;58692;43.212;27.908;2022-08-21T02:56:18;24.54;81.79
71039;SHT30;58692;43.212;27.908;2022-08-21T02:58:47;24.58;81.63
71039;SHT30;58692;43.212;27.908;2022-08-21T03:01:14;24.63;81.46
71039;SHT30;58692;43.212;27.908;2022-08-21T03:03:42;24.54;81.70
71039;SHT30;58692;43.212;27.908;2022-08-21T03:06:11;24.20;82.79
71039;SHT30;58692;43.212;27.908;2022-08-21T03:08:37;24.33;82.59
71039;SHT30;58692;43.212;27.908;2022-08-21T03:11:03;24.41;82.18
71039;SHT30;58692;43.212;27.908;2022-08-21T03:13:29;24.48;81.93
71039;SHT30;58692;43.212;27.908;2022-08-21T03:15:55;24.54;81.54
71039;SHT30;58692;43.212;27.908;2022-08-21T03:18:21;24.60;81.25
71039;SHT30;58692;43.212;27.908;2022-08-21T03:20:47;24.57;81.44
71039;SHT30;58692;43.212;27.908;2022-08-21T03:23:14;24.47;81.64
71039;SHT30;58692;43.212;27.908;2022-08-21T03:25:41;24.41;81.91
71039;SHT30;58692;43.212;27.908;2022-08-21T03:28:11;24.47;81.58
71039;SHT30;58692;43.212;27.908;2022-08-21T03:30:37;24.50;81.53
71039;SHT30;58692;43.212;27.908;2022-08-21T03:33:03;24.57;81.35
71039;SHT30;58692;43.212;27.908;2022-08-21T03:35:29;24.61;81.03
71039;SHT30;58692;43.212;27.908;2022-08-21T03:37:55;24.63;80.98
71039;SHT30;58692;43.212;27.908;2022-08-21T03:40:24;24.65;80.83
71039;SHT30;58692;43.212;27.908;2022-08-21T03:42:50;24.65;80.78
71039;SHT30;58692;43.212;27.908;2022-08-21T03:45:18;24.63;80.84
71039;SHT30;58692;43.212;27.908;2022-08-21T03:47:54;24.65;80.69
71039;SHT30;58692;43.212;27.908;2022-08-21T03:50:22;24.69;80.68
71039;SHT30;58692;43.212;27.908;2022-08-21T03:52:48;24.72;80.45
71039;SHT30;58692;43.212;27.908;2022-08-21T03:55:14;24.71;80.51
71039;SHT30;58692;43.212;27.908;2022-08-21T03:57:40;24.78;80.12
71039;SHT30;58692;43.212;27.908;2022-08-21T04:00:06;24.69;79.96
71039;SHT30;58692;43.212;27.908;2022-08-21T04:02:34;24.78;79.54
71039;SHT30;58692;43.212;27.908;2022-08-21T04:04:59;24.99;78.88
71039;SHT30;58692;43.212;27.908;2022-08-21T04:07:25;25.11;78.35
71039;SHT30;58692;43.212;27.908;2022-08-21T04:09:50;25.36;77.66
71039;SHT30;58692;43.212;27.908;2022-08-21T04:12:16;25.47;77.21
71039;SHT30;58692;43.212;27.908;2022-08-21T04:14:41;25.62;76.89
71039;SHT30;58692;43.212;27.908;2022-08-21T04:17:07;25.73;76.80
71039;SHT30;58692;43.212;27.908;2022-08-21T04:19:32;25.94;75.95
71039;SHT30;58692;43.212;27.908;2022-08-21T04:21:58;26.13;75.13
71039;SHT30;58692;43.212;27.908;2022-08-21T04:24:23;26.35;74.47
71039;SHT30;58692;43.212;27.908;2022-08-21T04:26:49;26.67;73.24
71039;SHT30;58692;43.212;27.908;2022-08-21T04:29:15;26.73;72.92
71039;SHT30;58692;43.212;27.908;2022-08-21T04:31:40;26.96;72.10
71039;SHT30;58692;43.212;27.908;2022-08-21T04:34:06;27.13;71.27
71039;SHT30;58692;43.212;27.908;2022-08-21T04:36:32;27.54;70.12
71039;SHT30;58692;43.212;27.908;2022-08-21T04:38:58;27.76;69.33
71039;SHT30;58692;43.212;27.908;2022-08-21T04:41:24;27.87;68.97
71039;SHT30;58692;43.212;27.908;2022-08-21T04:43:50;28.00;68.65
71039;SHT30;58692;43.212;27.908;2022-08-21T04:46:15;28.15;68.03
71039;SHT30;58692;43.212;27.908;2022-08-21T04:48:41;28.26;67.75
71039;SHT30;58692;43.212;27.908;2022-08-21T04:51:12;28.36;67.39
71039;SHT30;58692;43.212;27.908;2022-08-21T04:53:43;28.51;67.06
71039;SHT30;58692;43.212;27.908;2022-08-21T04:56:18;28.65;66.45
71039;SHT30;58692;43.212;27.908;2022-08-21T04:58:44;28.49;67.26
71039;SHT30;58692;43.212;27.908;2022-08-21T05:01:14;28.97;65.91
71039;SHT30;58692;43.212;27.908;2022-08-21T05:03:42;29.27;64.75
71039;SHT30;58692;43.212;27.908;2022-08-21T05:06:10;29.16;64.92
71039;SHT30;58692;43.212;27.908;2022-08-21T05:08:36;29.75;63.25
71039;SHT30;58692;43.212;27.908;2022-08-21T05:11:04;30.05;62.41
71039;SHT30;58692;43.212;27.908;2022-08-21T05:13:30;30.37;61.41
71039;SHT30;58692;43.212;27.908;2022-08-21T05:15:56;30.82;60.21
71039;SHT30;58692;43.212;27.908;2022-08-21T05:18:21;30.87;59.89
71039;SHT30;58692;43.212;27.908;2022-08-21T05:20:47;30.82;59.80
71039;SHT30;58692;43.212;27.908;2022-08-21T05:23:13;30.08;61.88
71039;SHT30;58692;43.212;27.908;2022-08-21T05:25:40;30.82;59.99
71039;SHT30;58692;43.212;27.908;2022-08-21T05:28:05;30.64;60.87
71039;SHT30;58692;43.212;27.908;2022-08-21T05:30:33;30.18;62.41
71039;SHT30;58692;43.212;27.908;2022-08-21T05:33:01;30.33;62.01
71039;SHT30;58692;43.212;27.908;2022-08-21T05:35:28;30.57;61.29
71039;SHT30;58692;43.212;27.908;2022-08-21T05:37:55;30.55;61.56
71039;SHT30;58692;43.212;27.908;2022-08-21T05:40:21;30.55;62.01
71039;SHT30;58692;43.212;27.908;2022-08-21T05:42:46;30.96;60.70
71039;SHT30;58692;43.212;27.908;2022-08-21T05:45:12;31.21;59.83
71039;SHT30;58692;43.212;27.908;2022-08-21T05:47:38;31.52;58.68
71039;SHT30;58692;43.212;27.908;2022-08-21T05:50:04;31.55;58.33
71039;SHT30;58692;43.212;27.908;2022-08-21T05:52:30;31.84;57.96
71039;SHT30;58692;43.212;27.908;2022-08-21T05:54:56;31.68;57.76
71039;SHT30;58692;43.212;27.908;2022-08-21T05:57:22;31.58;58.26
71039;SHT30;58692;43.212;27.908;2022-08-21T05:59:49;31.61;58.30
71039;SHT30;58692;43.212;27.908;2022-08-21T06:02:17;32.04;57.19
71039;SHT30;58692;43.212;27.908;2022-08-21T06:04:43;32.10;56.61
71039;SHT30;58692;43.212;27.908;2022-08-21T06:07:09;32.26;56.34
71039;SHT30;58692;43.212;27.908;2022-08-21T06:09:34;31.67;58.34
71039;SHT30;58692;43.212;27.908;2022-08-21T06:12:05;31.69;58.72
71039;SHT30;58692;43.212;27.908;2022-08-21T06:14:31;31.45;59.60
71039;SHT30;58692;43.212;27.908;2022-08-21T06:17:07;31.07;60.72
71039;SHT30;58692;43.212;27.908;2022-08-21T06:19:34;30.94;60.56
71039;SHT30;58692;43.212;27.908;2022-08-21T06:22:00;30.80;61.41
71039;SHT30;58692;43.212;27.908;2022-08-21T06:24:26;31.35;59.51
71039;SHT30;58692;43.212;27.908;2022-08-21T06:26:52;31.89;57.86
71039;SHT30;58692;43.212;27.908;2022-08-21T06:29:17;31.77;58.72
71039;SHT30;58692;43.212;27.908;2022-08-21T06:31:46;32.52;56.48
71039;SHT30;58692;43.212;27.908;2022-08-21T06:34:12;32.76;55.61
71039;SHT30;58692;43.212;27.908;2022-08-21T06:36:38;32.36;55.27
71039;SHT30;58692;43.212;27.908;2022-08-21T06:39:04;31.85;56.67
71039;SHT30;58692;43.212;27.908;2022-08-21T06:41:30;32.61;54.99
71039;SHT30;58692;43.212;27.908;2022-08-21T06:43:56;33.37;53.29
71039;SHT30;58692;43.212;27.908;2022-08-21T06:46:24;33.47;53.02
71039;SHT30;58692;43.212;27.908;2022-08-21T06:48:50;33.59;52.93
71039;SHT30;58692;43.212;27.908;2022-08-21T06:51:16;33.20;53.41
71039;SHT30;58692;43.212;27.908;2022-08-21T06:53:41;32.97;53.31
71039;SHT30;58692;43.212;27.908;2022-08-21T06:56:07;32.02;55.74
71039;SHT30;58692;43.212;27.908;2022-08-21T06:58:33;31.69;56.41
71039;SHT30;58692;43.212;27.908;2022-08-21T07:00:59;31.98;55.83
71039;SHT30;58692;43.212;27.908;2022-08-21T07:03:27;32.50;54.62
71039;SHT30;58692;43.212;27.908;2022-08-21T07:05:53;32.06;56.18
71039;SHT30;58692;43.212;27.908;2022-08-21T07:08:20;31.93;56.86
71039;SHT30;58692;43.212;27.908;2022-08-21T07:10:47;32.16;56.41
71039;SHT30;58692;43.212;27.908;2022-08-21T07:13:13;33.15;53.93
71039;SHT30;58692;43.212;27.908;2022-08-21T07:15:38;32.39;55.22
71039;SHT30;58692;43.212;27.908;2022-08-21T07:18:05;31.90;56.19
71039;SHT30;58692;43.212;27.908;2022-08-21T07:20:31;31.85;56.55
71039;SHT30;58692;43.212;27.908;2022-08-21T07:23:00;32.04;56.35
71039;SHT30;58692;43.212;27.908;2022-08-21T07:25:26;31.21;58.26
71039;SHT30;58692;43.212;27.908;2022-08-21T07:27:52;32.09;56.43
71039;SHT30;58692;43.212;27.908;2022-08-21T07:30:18;32.81;54.51
71039;SHT30;58692;43.212;27.908;2022-08-21T07:32:44;32.77;53.51
71039;SHT30;58692;43.212;27.908;2022-08-21T07:35:09;33.17;52.99
71039;SHT30;58692;43.212;27.908;2022-08-21T07:37:35;32.46;54.19
71039;SHT30;58692;43.212;27.908;2022-08-21T07:40:01;32.80;53.43
71039;SHT30;58692;43.212;27.908;2022-08-21T07:42:26;32.83;53.01
71039;SHT30;58692;43.212;27.908;2022-08-21T07:44:52;33.14;52.46
71039;SHT30;58692;43.212;27.908;2022-08-21T07:47:17;33.20;51.43
71039;SHT30;58692;43.212;27.908;2022-08-21T07:49:43;33.22;51.44
71039;SHT30;58692;43.212;27.908;2022-08-21T07:52:08;32.66;52.66
71039;SHT30;58692;43.212;27.908;2022-08-21T07:54:34;32.49;53.44
71039;SHT30;58692;43.212;27.908;2022-08-21T07:57:00;32.79;52.77
71039;SHT30;58692;43.212;27.908;2022-08-21T07:59:26;32.18;54.79
71039;SHT30;58692;43.212;27.908;2022-08-21T08:01:52;32.86;50.33
71039;SHT30;58692;43.212;27.908;2022-08-21T08:04:17;32.70;49.92
71039;SHT30;58692;43.212;27.908;2022-08-21T08:06:43;33.07;50.01
71039;SHT30;58692;43.212;27.908;2022-08-21T08:09:08;33.98;46.91
71039;SHT30;58692;43.212;27.908;2022-08-21T08:11:35;33.25;47.22
71039;SHT30;58692;43.212;27.908;2022-08-21T08:14:02;33.12;47.67
71039;SHT30;58692;43.212;27.908;2022-08-21T08:16:29;33.32;48.21
71039;SHT30;58692;43.212;27.908;2022-08-21T08:18:54;33.44;47.34
71039;SHT30;58692;43.212;27.908;2022-08-21T08:21:21;32.79;47.49
71039;SHT30;58692;43.212;27.908;2022-08-21T08:23:47;32.33;49.31
71039;SHT30;58692;43.212;27.908;2022-08-21T08:26:13;33.03;49.17
71039;SHT30;58692;43.212;27.908;2022-08-21T08:28:41;33.32;48.57
71039;SHT30;58692;43.212;27.908;2022-08-21T08:31:06;33.28;48.63
71039;SHT30;58692;43.212;27.908;2022-08-21T08:33:32;32.74;48.85
71039;SHT30;58692;43.212;27.908;2022-08-21T08:35:57;32.71;50.49
71039;SHT30;58692;43.212;27.908;2022-08-21T08:38:25;32.70;50.96
71039;SHT30;58692;43.212;27.908;2022-08-21T08:41:15;33.25;50.87
71039;SHT30;58692;43.212;27.908;2022-08-21T08:43:44;33.14;51.74
71039;SHT30;58692;43.212;27.908;2022-08-21T08:46:16;32.61;53.55
71039;SHT30;58692;43.212;27.908;2022-08-21T08:49:00;32.02;54.92
71039;SHT30;58692;43.212;27.908;2022-08-21T08:51:48;32.13;53.99
71039;SHT30;58692;43.212;27.908;2022-08-21T08:54:30;32.18;54.43
71039;SHT30;58692;43.212;27.908;2022-08-21T08:57:02;32.48;54.42
71039;SHT30;58692;43.212;27.908;2022-08-21T08:59:41;33.51;51.29
71039;SHT30;58692;43.212;27.908;2022-08-21T09:02:11;33.34;52.68
71039;SHT30;58692;43.212;27.908;2022-08-21T09:04:36;33.75;51.25
71039;SHT30;58692;43.212;27.908;2022-08-21T09:20:29;32.73;51.96
71039;SHT30;58692;43.212;27.908;2022-08-21T09:23:10;33.04;51.02
71039;SHT30;58692;43.212;27.908;2022-08-21T09:25:49;33.12;50.94
71039;SHT30;58692;43.212;27.908;2022-08-21T09:28:18;33.59;50.67
71039;SHT30;58692;43.212;27.908;2022-08-21T09:30:43;32.96;52.36
71039;SHT30;58692;43.212;27.908;2022-08-21T09:33:12;32.80;51.57
71039;SHT30;58692;43.212;27.908;2022-08-21T09:35:52;33.31;50.92
71039;SHT30;58692;43.212;27.908;2022-08-21T09:38:34;32.69;52.45
71039;SHT30;58692;43.212;27.908;2022-08-21T09:41:05;32.66;53.30
71039;SHT30;58692;43.212;27.908;2022-08-21T09:43:31;32.87;52.54
71039;SHT30;58692;43.212;27.908;2022-08-21T09:48:27;32.66;53.31
71039;SHT30;58692;43.212;27.908;2022-08-21T09:51:06;32.63;54.09
71039;SHT30;58692;43.212;27.908;2022-08-21T09:53:33;32.08;54.94
71039;SHT30;58692;43.212;27.908;2022-08-21T09:56:03;32.06;55.21
71039;SHT30;58692;43.212;27.908;2022-08-21T09:58:48;32.46;54.96
71039;SHT30;58692;43.212;27.908;2022-08-21T10:01:20;32.73;54.38
71039;SHT30;58692;43.212;27.908;2022-08-21T10:03:46;32.77;54.59
71039;SHT30;58692;43.212;27.908;2022-08-21T10:06:24;32.35;55.67
71039;SHT30;58692;43.212;27.908;2022-08-21T10:08:49;33.01;54.49
71039;SHT30;58692;43.212;27.908;2022-08-21T10:11:16;32.61;55.26
71039;SHT30;58692;43.212;27.908;2022-08-21T10:27:20;32.64;56.47
71039;SHT30;58692;43.212;27.908;2022-08-21T10:30:06;32.26;57.25
71039;SHT30;58692;43.212;27.908;2022-08-21T10:32:38;32.22;58.00
71039;SHT30;58692;43.212;27.908;2022-08-21T10:35:17;32.46;57.09
71039;SHT30;58692;43.212;27.908;2022-08-21T10:40:58;33.10;56.32
71039;SHT30;58692;43.212;27.908;2022-08-21T10:43:39;32.61;57.61
71039;SHT30;58692;43.212;27.908;2022-08-21T10:49:20;32.12;59.23
71039;SHT30;58692;43.212;27.908;2022-08-21T10:54:18;32.12;59.70
71039;SHT30;58692;43.212;27.908;2022-08-21T10:56:49;32.09;60.06
71039;SHT30;58692;43.212;27.908;2022-08-21T10:59:34;32.36;58.88
71039;SHT30;58692;43.212;27.908;2022-08-21T11:02:08;32.19;58.96
71039;SHT30;58692;43.212;27.908;2022-08-21T11:04:37;32.64;57.64
71039;SHT30;58692;43.212;27.908;2022-08-21T11:07:10;32.50;58.12
71039;SHT30;58692;43.212;27.908;2022-08-21T11:09:37;32.56;57.68
71039;SHT30;58692;43.212;27.908;2022-08-21T11:12:16;32.90;55.21
71039;SHT30;58692;43.212;27.908;2022-08-21T11:14:58;32.46;55.87
71039;SHT30;58692;43.212;27.908;2022-08-21T11:17:38;33.35;54.49
71039;SHT30;58692;43.212;27.908;2022-08-21T11:20:14;32.91;55.71
71039;SHT30;58692;43.212;27.908;2022-08-21T11:22:47;32.49;57.74
71039;SHT30;58692;43.212;27.908;2022-08-21T11:27:52;33.50;55.37
71039;SHT30;58692;43.212;27.908;2022-08-21T11:30:20;33.22;55.64
71039;SHT30;58692;43.212;27.908;2022-08-21T11:35:51;32.64;57.06
71039;SHT30;58692;43.212;27.908;2022-08-21T11:38:22;33.00;57.27
71039;SHT30;58692;43.212;27.908;2022-08-21T11:41:12;32.64;58.45
71039;SHT30;58692;43.212;27.908;2022-08-21T11:43:43;31.57;60.86
71039;SHT30;58692;43.212;27.908;2022-08-21T11:46:19;31.78;60.85
71039;SHT30;58692;43.212;27.908;2022-08-21T11:49:11;32.55;59.02
71039;SHT30;58692;43.212;27.908;2022-08-21T11:57:19;32.16;60.40
71039;SHT30;58692;43.212;27.908;2022-08-21T12:02:33;32.83;58.84
71039;SHT30;58692;43.212;27.908;2022-08-21T12:05:03;32.43;60.41
71039;SHT30;58692;43.212;27.908;2022-08-21T12:07:30;31.79;62.20
71039;SHT30;58692;43.212;27.908;2022-08-21T12:09:57;32.12;61.51
71039;SHT30;58692;43.212;27.908;2022-08-21T12:12:25;31.77;62.02
71039;SHT30;58692;43.212;27.908;2022-08-21T12:17:56;31.98;60.95
71039;SHT30;58692;43.212;27.908;2022-08-21T12:20:34;32.33;59.44
71039;SHT30;58692;43.212;27.908;2022-08-21T12:25:47;30.86;63.71
71039;SHT30;58692;43.212;27.908;2022-08-21T12:28:24;30.73;64.31
71039;SHT30;58692;43.212;27.908;2022-08-21T12:30:51;30.26;65.55
71039;SHT30;58692;43.212;27.908;2022-08-21T12:33:34;29.93;66.85
71039;SHT30;58692;43.212;27.908;2022-08-21T12:36:20;29.46;68.19
71039;SHT30;58692;43.212;27.908;2022-08-21T12:38:54;29.11;69.42
71039;SHT30;58692;43.212;27.908;2022-08-21T12:41:30;29.00;70.19
71039;SHT30;58692;43.212;27.908;2022-08-21T12:44:01;29.27;69.34
71039;SHT30;58692;43.212;27.908;2022-08-21T12:46:37;29.04;69.90
71039;SHT30;58692;43.212;27.908;2022-08-21T12:49:26;29.11;68.53
71039;SHT30;58692;43.212;27.908;2022-08-21T12:51:56;28.97;69.44
71039;SHT30;58692;43.212;27.908;2022-08-21T12:54:26;29.29;68.15
71039;SHT30;58692;43.212;27.908;2022-08-21T12:57:00;29.02;68.19
71039;SHT30;58692;43.212;27.908;2022-08-21T12:59:26;29.04;68.24
71039;SHT30;58692;43.212;27.908;2022-08-21T13:01:52;28.99;68.39
71039;SHT30;58692;43.212;27.908;2022-08-21T13:04:33;28.84;68.81
71039;SHT30;58692;43.212;27.908;2022-08-21T13:06:59;28.83;69.56
71039;SHT30;58692;43.212;27.908;2022-08-21T13:09:28;28.83;69.76
71039;SHT30;58692;43.212;27.908;2022-08-21T13:11:54;28.86;69.80
71039;SHT30;58692;43.212;27.908;2022-08-21T13:14:30;29.29;68.76
71039;SHT30;58692;43.212;27.908;2022-08-21T13:16:58;29.09;68.58
71039;SHT30;58692;43.212;27.908;2022-08-21T13:19:26;28.60;70.13
71039;SHT30;58692;43.212;27.908;2022-08-21T13:21:52;28.63;70.29
71039;SHT30;58692;43.212;27.908;2022-08-21T13:24:20;28.68;70.52
71039;SHT30;58692;43.212;27.908;2022-08-21T13:26:47;28.73;70.68
71039;SHT30;58692;43.212;27.908;2022-08-21T13:29:16;28.72;70.43
71039;SHT30;58692;43.212;27.908;2022-08-21T13:31:53;28.55;70.66
71039;SHT30;58692;43.212;27.908;2022-08-21T13:34:23;28.70;70.08
71039;SHT30;58692;43.212;27.908;2022-08-21T13:36:52;28.45;70.64
71039;SHT30;58692;43.212;27.908;2022-08-21T13:39:20;28.58;70.91
71039;SHT30;58692;43.212;27.908;2022-08-21T13:41:49;28.76;70.52
71039;SHT30;58692;43.212;27.908;2022-08-21T13:44:19;28.92;69.74
71039;SHT30;58692;43.212;27.908;2022-08-21T13:46:47;29.16;69.35
71039;SHT30;58692;43.212;27.908;2022-08-21T13:49:16;29.00;69.60
71039;SHT30;58692;43.212;27.908;2022-08-21T13:51:43;28.97;70.22
71039;SHT30;58692;43.212;27.908;2022-08-21T13:54:25;29.03;70.19
71039;SHT30;58692;43.212;27.908;2022-08-21T13:56:53;28.95;70.52
71039;SHT30;58692;43.212;27.908;2022-08-21T13:59:35;29.02;70.44
71039;SHT30;58692;43.212;27.908;2022-08-21T14:04:56;28.93;70.37
71039;SHT30;58692;43.212;27.908;2022-08-21T14:07:33;28.79;70.95
71039;SHT30;58692;43.212;27.908;2022-08-21T14:12:40;28.63;71.25
71039;SHT30;58692;43.212;27.908;2022-08-21T14:15:07;28.68;71.26
71039;SHT30;58692;43.212;27.908;2022-08-21T14:17:37;28.63;71.57
71039;SHT30;58692;43.212;27.908;2022-08-21T14:20:05;28.24;72.57
71039;SHT30;58692;43.212;27.908;2022-08-21T14:22:44;28.01;73.51
71039;SHT30;58692;43.212;27.908;2022-08-21T14:25:14;28.29;72.52
71039;SHT30;58692;43.212;27.908;2022-08-21T14:27:56;28.28;71.64
71039;SHT30;58692;43.212;27.908;2022-08-21T14:30:29;28.19;72.06
71039;SHT30;58692;43.212;27.908;2022-08-21T14:32:55;28.24;72.24
71039;SHT30;58692;43.212;27.908;2022-08-21T14:35:21;28.39;71.78
71039;SHT30;58692;43.212;27.908;2022-08-21T14:37:48;28.32;71.70
71039;SHT30;58692;43.212;27.908;2022-08-21T14:40:16;28.34;71.42
71039;SHT30;58692;43.212;27.908;2022-08-21T14:42:43;28.35;71.38
71039;SHT30;58692;43.212;27.908;2022-08-21T14:45:15;28.28;71.65
71039;SHT30;58692;43.212;27.908;2022-08-21T14:47:41;28.39;71.36
71039;SHT30;58692;43.212;27.908;2022-08-21T14:50:09;28.51;70.78
71039;SHT30;58692;43.212;27.908;2022-08-21T14:52:35;28.31;71.37
71039;SHT30;58692;43.212;27.908;2022-08-21T14:55:03;28.32;71.51
71039;SHT30;58692;43.212;27.908;2022-08-21T14:57:31;28.18;72.31
71039;SHT30;58692;43.212;27.908;2022-08-21T14:59:57;28.07;72.76
71039;SHT30;58692;43.212;27.908;2022-08-21T15:02:24;28.18;72.76
71039;SHT30;58692;43.212;27.908;2022-08-21T15:04:50;28.12;73.29
71039;SHT30;58692;43.212;27.908;2022-08-21T15:07:16;28.42;72.12
71039;SHT30;58692;43.212;27.908;2022-08-21T15:09:41;28.36;72.42
71039;SHT30;58692;43.212;27.908;2022-08-21T15:12:07;28.28;72.36
71039;SHT30;58692;43.212;27.908;2022-08-21T15:14:36;28.34;72.24
71039;SHT30;58692;43.212;27.908;2022-08-21T15:17:05;28.46;72.00
71039;SHT30;58692;43.212;27.908;2022-08-21T15:19:31;28.18;72.40
71039;SHT30;58692;43.212;27.908;2022-08-21T15:21:57;27.95;73.58
71039;SHT30;58692;43.212;27.908;2022-08-21T15:24:23;28.25;72.38
71039;SHT30;58692;43.212;27.908;2022-08-21T15:26:49;28.39;72.30
71039;SHT30;58692;43.212;27.908;2022-08-21T15:29:15;28.32;72.59
71039;SHT30;58692;43.212;27.908;2022-08-21T15:31:57;27.90;73.23
71039;SHT30;58692;43.212;27.908;2022-08-21T15:34:25;27.70;73.05
71039;SHT30;58692;43.212;27.908;2022-08-21T15:36:51;27.88;72.64
71039;SHT30;58692;43.212;27.908;2022-08-21T15:39:18;27.83;71.43
71039;SHT30;58692;43.212;27.908;2022-08-21T15:41:44;27.85;70.79
71039;SHT30;58692;43.212;27.908;2022-08-21T15:44:10;27.70;71.57
71039;SHT30;58692;43.212;27.908;2022-08-21T15:46:38;27.65;71.98
71039;SHT30;58692;43.212;27.908;2022-08-21T15:49:04;27.70;72.19
71039;SHT30;58692;43.212;27.908;2022-08-21T15:51:30;27.67;72.62
71039;SHT30;58692;43.212;27.908;2022-08-21T15:53:56;27.54;73.22
71039;SHT30;58692;43.212;27.908;2022-08-21T15:56:28;27.37;73.74
71039;SHT30;58692;43.212;27.908;2022-08-21T15:59:00;27.49;73.76
71039;SHT30;58692;43.212;27.908;2022-08-21T16:01:28;27.54;73.32
71039;SHT30;58692;43.212;27.908;2022-08-21T16:03:54;27.55;73.24
71039;SHT30;58692;43.212;27.908;2022-08-21T16:06:20;27.60;73.11
71039;SHT30;58692;43.212;27.908;2022-08-21T16:08:46;27.77;72.45
71039;SHT30;58692;43.212;27.908;2022-08-21T16:11:13;27.91;71.32
71039;SHT30;58692;43.212;27.908;2022-08-21T16:13:42;27.78;71.67
71039;SHT30;58692;43.212;27.908;2022-08-21T16:16:10;27.55;72.59
71039;SHT30;58692;43.212;27.908;2022-08-21T16:18:36;27.58;72.48
71039;SHT30;58692;43.212;27.908;2022-08-21T16:21:02;27.64;73.01
71039;SHT30;58692;43.212;27.908;2022-08-21T16:23:27;27.58;73.21
71039;SHT30;58692;43.212;27.908;2022-08-21T16:25:53;27.57;72.97